sensor_id;sensor_type;location;lat;lon;timestamp;P1;durP1;ratioP1;P2;durP2;ratioP2
20095;SDS011;10207;50.942;6.900;2023-04-03T00:00:33;3.73;;;2.90;;
20095;SDS011;10207;50.942;6.900;2023-04-03T00:02:59;5.10;;;2.50;;
20095;SDS011;10207;50.942;6.900;2023-04-03T00:05:25;5.40;;;3.00;;
20095;SDS011;10207;50.942;6.900;2023-04-03T00:07:51;5.43;;;2.67;;
20095;SDS011;10207;50.942;6.900;2023-04-03T00:10:17;8.77;;;3.10;;
20095;SDS011;10207;50.942;6.900;2023-04-03T00:12:43;5.47;;;2.50;;
20095;SDS011;10207;50.942;6.900;2023-04-03T00:15:09;9.47;;;3.27;;
20095;SDS011;10207;50.942;6.900;2023-04-03T00:17:35;4.53;;;3.23;;
20095;SDS011;10207;50.942;6.900;2023-04-03T00:20:02;7.23;;;3.20;;
20095;SDS011;10207;50.942;6.900;2023-04-03T00:22:28;7.07;;;3.53;;
20095;SDS011;10207;50.942;6.900;2023-04-03T00:24:54;6.43;;;3.40;;
20095;SDS011;10207;50.942;6.900;2023-04-03T00:27:21;6.60;;;3.47;;
20095;SDS011;10207;50.942;6.900;2023-04-03T00:29:47;8.60;;;4.63;;
20095;SDS011;10207;50.942;6.900;2023-04-03T00:32:13;6.07;;;3.87;;
20095;SDS011;10207;50.942;6.900;2023-04-03T00:34:39;5.27;;;3.67;;
20095;SDS011;10207;50.942;6.900;2023-04-03T00:37:05;9.33;;;4.67;;
20095;SDS011;10207;50.942;6.900;2023-04-03T00:39:31;9.33;;;4.40;;
20095;SDS011;10207;50.942;6.900;2023-04-03T00:41:57;7.50;;;4.07;;
20095;SDS011;10207;50.942;6.900;2023-04-03T00:46:59;8.77;;;4.83;;
20095;SDS011;10207;50.942;6.900;2023-04-03T00:49:26;8.03;;;4.17;;
20095;SDS011;10207;50.942;6.900;2023-04-03T00:51:52;6.40;;;4.10;;
20095;SDS011;10207;50.942;6.900;2023-04-03T00:54:18;10.00;;;5.43;;
20095;SDS011;10207;50.942;6.900;2023-04-03T00:56:44;7.93;;;3.73;;
20095;SDS011;10207;50.942;6.900;2023-04-03T00:59:15;9.47;;;3.77;;
20095;SDS011;10207;50.942;6.900;2023-04-03T01:01:42;7.80;;;3.77;;
20095;SDS011;10207;50.942;6.900;2023-04-03T01:06:53;9.27;;;5.10;;
20095;SDS011;10207;50.942;6.900;2023-04-03T01:09:21;7.73;;;3.97;;
20095;SDS011;10207;50.942;6.900;2023-04-03T01:11:48;4.77;;;3.73;;
20095;SDS011;10207;50.942;6.900;2023-04-03T01:14:14;7.03;;;3.97;;
20095;SDS011;10207;50.942;6.900;2023-04-03T01:16:40;9.27;;;4.30;;
20095;SDS011;10207;50.942;6.900;2023-04-03T01:19:07;6.43;;;3.73;;
20095;SDS011;10207;50.942;6.900;2023-04-03T01:26:48;5.97;;;3.57;;
20095;SDS011;10207;50.942;6.900;2023-04-03T01:29:15;6.63;;;3.40;;
20095;SDS011;10207;50.942;6.900;2023-04-03T01:34:10;5.17;;;3.13;;
20095;SDS011;10207;50.942;6.900;2023-04-03T01:36:36;6.83;;;3.00;;
20095;SDS011;10207;50.942;6.900;2023-04-03T01:39:02;9.83;;;3.43;;
20095;SDS011;10207;50.942;6.900;2023-04-03T01:41:28;8.77;;;3.57;;
20095;SDS011;10207;50.942;6.900;2023-04-03T01:44:01;6.93;;;3.40;;
20095;SDS011;10207;50.942;6.900;2023-04-03T01:46:27;4.73;;;3.03;;
20095;SDS011;10207;50.942;6.900;2023-04-03T01:48:53;7.10;;;3.07;;
20095;SDS011;10207;50.942;6.900;2023-04-03T01:51:19;6.03;;;3.10;;
20095;SDS011;10207;50.942;6.900;2023-04-03T01:53:45;7.97;;;3.70;;
20095;SDS011;10207;50.942;6.900;2023-04-03T01:56:11;6.47;;;3.23;;
20095;SDS011;10207;50.942;6.900;2023-04-03T01:58:38;5.03;;;3.07;;
20095;SDS011;10207;50.942;6.900;2023-04-03T02:01:04;5.97;;;3.40;;
20095;SDS011;10207;50.942;6.900;2023-04-03T02:03:31;7.33;;;3.70;;
20095;SDS011;10207;50.942;6.900;2023-04-03T02:05:57;5.43;;;3.60;;
20095;SDS011;10207;50.942;6.900;2023-04-03T02:08:23;7.33;;;3.70;;
20095;SDS011;10207;50.942;6.900;2023-04-03T02:10:49;8.10;;;3.80;;
20095;SDS011;10207;50.942;6.900;2023-04-03T02:13:16;6.80;;;3.73;;
20095;SDS011;10207;50.942;6.900;2023-04-03T02:15:42;5.63;;;3.73;;
20095;SDS011;10207;50.942;6.900;2023-04-03T02:18:08;6.90;;;4.17;;
20095;SDS011;10207;50.942;6.900;2023-04-03T02:20:34;5.83;;;4.07;;
20095;SDS011;10207;50.942;6.900;2023-04-03T02:23:00;5.40;;;3.80;;
20095;SDS011;10207;50.942;6.900;2023-04-03T02:25:27;5.33;;;3.83;;
20095;SDS011;10207;50.942;6.900;2023-04-03T02:27:53;8.27;;;4.40;;
20095;SDS011;10207;50.942;6.900;2023-04-03T02:30:18;7.33;;;4.43;;
20095;SDS011;10207;50.942;6.900;2023-04-03T02:32:45;6.33;;;4.60;;
20095;SDS011;10207;50.942;6.900;2023-04-03T02:35:11;6.97;;;4.33;;
20095;SDS011;10207;50.942;6.900;2023-04-03T02:37:38;7.70;;;5.10;;
20095;SDS011;10207;50.942;6.900;2023-04-03T02:40:05;7.70;;;4.10;;
20095;SDS011;10207;50.942;6.900;2023-04-03T02:42:31;10.17;;;4.53;;
20095;SDS011;10207;50.942;6.900;2023-04-03T02:44:57;7.67;;;4.17;;
20095;SDS011;10207;50.942;6.900;2023-04-03T02:47:26;5.53;;;4.37;;
20095;SDS011;10207;50.942;6.900;2023-04-03T02:49:53;5.40;;;4.20;;
20095;SDS011;10207;50.942;6.900;2023-04-03T02:52:19;5.03;;;3.57;;
20095;SDS011;10207;50.942;6.900;2023-04-03T02:54:47;8.40;;;4.60;;
20095;SDS011;10207;50.942;6.900;2023-04-03T02:57:13;10.03;;;4.27;;
20095;SDS011;10207;50.942;6.900;2023-04-03T02:59:39;5.43;;;3.90;;
20095;SDS011;10207;50.942;6.900;2023-04-03T03:02:07;6.93;;;4.17;;
20095;SDS011;10207;50.942;6.900;2023-04-03T03:04:33;11.50;;;4.67;;
20095;SDS011;10207;50.942;6.900;2023-04-03T03:06:59;4.47;;;3.80;;
20095;SDS011;10207;50.942;6.900;2023-04-03T03:09:25;6.70;;;4.20;;
20095;SDS011;10207;50.942;6.900;2023-04-03T03:11:52;5.67;;;4.00;;
20095;SDS011;10207;50.942;6.900;2023-04-03T03:14:18;5.60;;;4.17;;
20095;SDS011;10207;50.942;6.900;2023-04-03T03:16:43;6.30;;;4.13;;
20095;SDS011;10207;50.942;6.900;2023-04-03T03:19:10;5.20;;;4.23;;
20095;SDS011;10207;50.942;6.900;2023-04-03T03:21:36;7.03;;;3.90;;
20095;SDS011;10207;50.942;6.900;2023-04-03T03:24:02;8.27;;;4.90;;
20095;SDS011;10207;50.942;6.900;2023-04-03T03:26:28;6.50;;;3.90;;
20095;SDS011;10207;50.942;6.900;2023-04-03T03:28:54;7.20;;;3.90;;
20095;SDS011;10207;50.942;6.900;2023-04-03T03:31:20;7.50;;;4.53;;
20095;SDS011;10207;50.942;6.900;2023-04-03T03:33:46;11.20;;;5.23;;
20095;SDS011;10207;50.942;6.900;2023-04-03T03:36:12;6.10;;;3.93;;
20095;SDS011;10207;50.942;6.900;2023-04-03T03:38:38;6.43;;;4.47;;
20095;SDS011;10207;50.942;6.900;2023-04-03T03:41:04;11.60;;;4.33;;
20095;SDS011;10207;50.942;6.900;2023-04-03T03:43:32;5.53;;;3.63;;
20095;SDS011;10207;50.942;6.900;2023-04-03T03:45:59;8.47;;;4.00;;
20095;SDS011;10207;50.942;6.900;2023-04-03T03:48:26;7.17;;;3.17;;
20095;SDS011;10207;50.942;6.900;2023-04-03T03:50:52;6.63;;;3.17;;
20095;SDS011;10207;50.942;6.900;2023-04-03T03:53:21;5.07;;;3.60;;
20095;SDS011;10207;50.942;6.900;2023-04-03T03:55:51;6.17;;;3.23;;
20095;SDS011;10207;50.942;6.900;2023-04-03T03:58:19;7.80;;;2.43;;
20095;SDS011;10207;50.942;6.900;2023-04-03T04:00:46;5.80;;;2.67;;
20095;SDS011;10207;50.942;6.900;2023-04-03T04:03:12;4.07;;;2.60;;
20095;SDS011;10207;50.942;6.900;2023-04-03T04:05:39;3.57;;;2.77;;
20095;SDS011;10207;50.942;6.900;2023-04-03T04:08:05;4.77;;;2.27;;
20095;SDS011;10207;50.942;6.900;2023-04-03T04:10:32;6.33;;;2.87;;
20095;SDS011;10207;50.942;6.900;2023-04-03T04:12:58;7.20;;;2.47;;
20095;SDS011;10207;50.942;6.900;2023-04-03T04:15:27;5.77;;;2.63;;
20095;SDS011;10207;50.942;6.900;2023-04-03T04:17:54;4.73;;;2.47;;
20095;SDS011;10207;50.942;6.900;2023-04-03T04:20:21;4.60;;;2.57;;
20095;SDS011;10207;50.942;6.900;2023-04-03T04:22:48;4.73;;;2.20;;
20095;SDS011;10207;50.942;6.900;2023-04-03T04:25:15;6.03;;;2.57;;
20095;SDS011;10207;50.942;6.900;2023-04-03T04:27:41;7.30;;;3.50;;
20095;SDS011;10207;50.942;6.900;2023-04-03T04:30:08;5.13;;;2.13;;
20095;SDS011;10207;50.942;6.900;2023-04-03T04:32:34;2.73;;;2.03;;
20095;SDS011;10207;50.942;6.900;2023-04-03T04:35:01;3.60;;;1.87;;
20095;SDS011;10207;50.942;6.900;2023-04-03T04:37:30;2.77;;;2.07;;
20095;SDS011;10207;50.942;6.900;2023-04-03T04:39:56;4.40;;;2.27;;
20095;SDS011;10207;50.942;6.900;2023-04-03T04:42:22;7.03;;;2.10;;
20095;SDS011;10207;50.942;6.900;2023-04-03T04:44:49;5.37;;;2.40;;
20095;SDS011;10207;50.942;6.900;2023-04-03T04:47:16;4.90;;;2.13;;
20095;SDS011;10207;50.942;6.900;2023-04-03T04:49:42;7.83;;;2.93;;
20095;SDS011;10207;50.942;6.900;2023-04-03T04:52:09;5.67;;;2.07;;
20095;SDS011;10207;50.942;6.900;2023-04-03T04:54:36;5.97;;;2.30;;
20095;SDS011;10207;50.942;6.900;2023-04-03T04:57:02;6.17;;;1.87;;
20095;SDS011;10207;50.942;6.900;2023-04-03T04:59:29;3.10;;;2.20;;
20095;SDS011;10207;50.942;6.900;2023-04-03T05:01:57;6.67;;;2.20;;
20095;SDS011;10207;50.942;6.900;2023-04-03T05:04:23;3.23;;;1.63;;
20095;SDS011;10207;50.942;6.900;2023-04-03T05:06:54;4.80;;;2.27;;
20095;SDS011;10207;50.942;6.900;2023-04-03T05:09:24;4.10;;;1.90;;
20095;SDS011;10207;50.942;6.900;2023-04-03T05:11:52;4.30;;;2.23;;
20095;SDS011;10207;50.942;6.900;2023-04-03T05:14:21;5.90;;;1.87;;
20095;SDS011;10207;50.942;6.900;2023-04-03T05:16:48;4.03;;;1.70;;
20095;SDS011;10207;50.942;6.900;2023-04-03T05:19:15;4.87;;;1.70;;
20095;SDS011;10207;50.942;6.900;2023-04-03T05:21:41;3.10;;;1.90;;
20095;SDS011;10207;50.942;6.900;2023-04-03T05:24:12;3.83;;;1.87;;
20095;SDS011;10207;50.942;6.900;2023-04-03T05:26:41;7.60;;;2.20;;
20095;SDS011;10207;50.942;6.900;2023-04-03T05:29:07;7.23;;;2.30;;
20095;SDS011;10207;50.942;6.900;2023-04-03T05:31:33;3.47;;;2.43;;
20095;SDS011;10207;50.942;6.900;2023-04-03T05:33:59;5.93;;;2.80;;
20095;SDS011;10207;50.942;6.900;2023-04-03T05:36:28;3.97;;;2.30;;
20095;SDS011;10207;50.942;6.900;2023-04-03T05:38:59;6.17;;;2.20;;
20095;SDS011;10207;50.942;6.900;2023-04-03T05:41:25;4.23;;;2.30;;
20095;SDS011;10207;50.942;6.900;2023-04-03T05:43:51;7.43;;;2.43;;
20095;SDS011;10207;50.942;6.900;2023-04-03T05:46:19;7.90;;;1.90;;
20095;SDS011;10207;50.942;6.900;2023-04-03T05:48:50;7.37;;;2.27;;
20095;SDS011;10207;50.942;6.900;2023-04-03T05:51:28;8.80;;;2.50;;
20095;SDS011;10207;50.942;6.900;2023-04-03T05:54:13;4.13;;;1.97;;
20095;SDS011;10207;50.942;6.900;2023-04-03T05:56:42;4.93;;;1.50;;
20095;SDS011;10207;50.942;6.900;2023-04-03T05:59:08;11.83;;;2.73;;
20095;SDS011;10207;50.942;6.900;2023-04-03T06:01:34;6.70;;;2.60;;
20095;SDS011;10207;50.942;6.900;2023-04-03T06:04:01;7.47;;;2.17;;
20095;SDS011;10207;50.942;6.900;2023-04-03T06:06:42;5.73;;;2.67;;
20095;SDS011;10207;50.942;6.900;2023-04-03T06:09:09;4.57;;;1.73;;
20095;SDS011;10207;50.942;6.900;2023-04-03T06:11:35;4.57;;;1.90;;
20095;SDS011;10207;50.942;6.900;2023-04-03T06:14:01;7.17;;;2.60;;
20095;SDS011;10207;50.942;6.900;2023-04-03T06:16:28;3.57;;;2.30;;
20095;SDS011;10207;50.942;6.900;2023-04-03T06:18:54;4.17;;;2.10;;
20095;SDS011;10207;50.942;6.900;2023-04-03T06:21:22;4.53;;;1.47;;
20095;SDS011;10207;50.942;6.900;2023-04-03T06:23:48;5.83;;;1.90;;
20095;SDS011;10207;50.942;6.900;2023-04-03T06:26:13;6.43;;;2.30;;
20095;SDS011;10207;50.942;6.900;2023-04-03T06:28:40;4.50;;;1.90;;
20095;SDS011;10207;50.942;6.900;2023-04-03T06:31:06;11.67;;;2.33;;
20095;SDS011;10207;50.942;6.900;2023-04-03T06:33:32;5.43;;;2.40;;
20095;SDS011;10207;50.942;6.900;2023-04-03T06:35:58;3.63;;;1.42;;
20095;SDS011;10207;50.942;6.900;2023-04-03T06:38:24;7.10;;;1.40;;
20095;SDS011;10207;50.942;6.900;2023-04-03T06:40:51;2.95;;;1.42;;
20095;SDS011;10207;50.942;6.900;2023-04-03T06:43:17;4.87;;;1.80;;
20095;SDS011;10207;50.942;6.900;2023-04-03T06:45:43;4.82;;;1.70;;
20095;SDS011;10207;50.942;6.900;2023-04-03T06:48:09;7.43;;;1.80;;
20095;SDS011;10207;50.942;6.900;2023-04-03T06:50:35;6.53;;;2.15;;
20095;SDS011;10207;50.942;6.900;2023-04-03T06:53:01;4.35;;;1.60;;
20095;SDS011;10207;50.942;6.900;2023-04-03T06:55:27;4.35;;;1.65;;
20095;SDS011;10207;50.942;6.900;2023-04-03T06:57:53;3.53;;;1.70;;
20095;SDS011;10207;50.942;6.900;2023-04-03T07:00:19;3.70;;;1.40;;
20095;SDS011;10207;50.942;6.900;2023-04-03T07:02:45;6.65;;;1.65;;
20095;SDS011;10207;50.942;6.900;2023-04-03T07:05:12;4.13;;;1.95;;
20095;SDS011;10207;50.942;6.900;2023-04-03T07:07:38;3.35;;;0.93;;
20095;SDS011;10207;50.942;6.900;2023-04-03T07:10:05;5.68;;;1.40;;
20095;SDS011;10207;50.942;6.900;2023-04-03T07:12:31;4.95;;;1.13;;
20095;SDS011;10207;50.942;6.900;2023-04-03T07:14:57;3.28;;;1.42;;
20095;SDS011;10207;50.942;6.900;2023-04-03T07:17:23;3.80;;;1.23;;
20095;SDS011;10207;50.942;6.900;2023-04-03T07:19:51;2.42;;;1.42;;
20095;SDS011;10207;50.942;6.900;2023-04-03T07:22:17;3.75;;;1.50;;
20095;SDS011;10207;50.942;6.900;2023-04-03T07:24:43;3.00;;;1.17;;
20095;SDS011;10207;50.942;6.900;2023-04-03T07:27:09;3.83;;;1.77;;
20095;SDS011;10207;50.942;6.900;2023-04-03T07:29:35;2.25;;;0.98;;
20095;SDS011;10207;50.942;6.900;2023-04-03T07:32:02;5.45;;;1.30;;
20095;SDS011;10207;50.942;6.900;2023-04-03T07:34:28;2.90;;;1.30;;
20095;SDS011;10207;50.942;6.900;2023-04-03T07:36:54;5.88;;;1.70;;
20095;SDS011;10207;50.942;6.900;2023-04-03T07:39:20;3.80;;;1.08;;
20095;SDS011;10207;50.942;6.900;2023-04-03T07:41:46;3.83;;;0.88;;
20095;SDS011;10207;50.942;6.900;2023-04-03T07:44:12;1.65;;;0.52;;
20095;SDS011;10207;50.942;6.900;2023-04-03T07:46:38;3.53;;;1.60;;
20095;SDS011;10207;50.942;6.900;2023-04-03T07:49:04;2.13;;;0.90;;
20095;SDS011;10207;50.942;6.900;2023-04-03T07:51:30;2.58;;;1.00;;
20095;SDS011;10207;50.942;6.900;2023-04-03T07:53:56;1.73;;;1.00;;
20095;SDS011;10207;50.942;6.900;2023-04-03T07:56:22;3.58;;;1.15;;
20095;SDS011;10207;50.942;6.900;2023-04-03T07:58:48;3.67;;;1.15;;
20095;SDS011;10207;50.942;6.900;2023-04-03T08:01:14;5.05;;;1.13;;
20095;SDS011;10207;50.942;6.900;2023-04-03T08:03:40;3.25;;;0.90;;
20095;SDS011;10207;50.942;6.900;2023-04-03T08:06:07;4.45;;;1.15;;
20095;SDS011;10207;50.942;6.900;2023-04-03T08:08:33;4.18;;;1.38;;
20095;SDS011;10207;50.942;6.900;2023-04-03T08:10:59;6.47;;;1.30;;
20095;SDS011;10207;50.942;6.900;2023-04-03T08:13:26;2.28;;;1.20;;
20095;SDS011;10207;50.942;6.900;2023-04-03T08:15:52;2.15;;;0.95;;
20095;SDS011;10207;50.942;6.900;2023-04-03T08:18:18;4.25;;;0.98;;
20095;SDS011;10207;50.942;6.900;2023-04-03T08:20:47;3.08;;;1.00;;
20095;SDS011;10207;50.942;6.900;2023-04-03T08:23:13;2.80;;;1.13;;
20095;SDS011;10207;50.942;6.900;2023-04-03T08:25:41;4.53;;;1.08;;
20095;SDS011;10207;50.942;6.900;2023-04-03T08:28:07;3.00;;;0.93;;
20095;SDS011;10207;50.942;6.900;2023-04-03T08:30:34;3.97;;;1.23;;
20095;SDS011;10207;50.942;6.900;2023-04-03T08:33:01;5.28;;;1.30;;
20095;SDS011;10207;50.942;6.900;2023-04-03T08:35:27;5.03;;;1.10;;
20095;SDS011;10207;50.942;6.900;2023-04-03T08:37:53;2.97;;;1.27;;
20095;SDS011;10207;50.942;6.900;2023-04-03T08:40:19;6.88;;;1.15;;
20095;SDS011;10207;50.942;6.900;2023-04-03T08:45:35;4.20;;;0.80;;
20095;SDS011;10207;50.942;6.900;2023-04-03T08:48:07;3.65;;;1.20;;
20095;SDS011;10207;50.942;6.900;2023-04-03T08:50:38;5.82;;;1.00;;
20095;SDS011;10207;50.942;6.900;2023-04-03T08:53:05;3.67;;;0.80;;
20095;SDS011;10207;50.942;6.900;2023-04-03T08:55:48;3.00;;;0.70;;
20095;SDS011;10207;50.942;6.900;2023-04-03T08:58:18;3.55;;;0.95;;
20095;SDS011;10207;50.942;6.900;2023-04-03T09:00:55;1.88;;;0.93;;
20095;SDS011;10207;50.942;6.900;2023-04-03T09:03:23;3.13;;;0.90;;
20095;SDS011;10207;50.942;6.900;2023-04-03T09:10:44;2.75;;;0.60;;
20095;SDS011;10207;50.942;6.900;2023-04-03T09:15:54;2.72;;;0.70;;
20095;SDS011;10207;50.942;6.900;2023-04-03T09:18:23;2.65;;;1.10;;
20095;SDS011;10207;50.942;6.900;2023-04-03T09:21:08;3.03;;;1.02;;
20095;SDS011;10207;50.942;6.900;2023-04-03T09:23:39;2.17;;;0.93;;
20095;SDS011;10207;50.942;6.900;2023-04-03T09:26:09;4.25;;;1.00;;
20095;SDS011;10207;50.942;6.900;2023-04-03T09:28:38;2.95;;;1.00;;
20095;SDS011;10207;50.942;6.900;2023-04-03T09:31:38;2.85;;;0.88;;
20095;SDS011;10207;50.942;6.900;2023-04-03T09:33:58;2.53;;;0.90;;
20095;SDS011;10207;50.942;6.900;2023-04-03T09:39:14;3.10;;;0.82;;
20095;SDS011;10207;50.942;6.900;2023-04-03T09:41:42;3.22;;;1.02;;
20095;SDS011;10207;50.942;6.900;2023-04-03T09:44:21;2.78;;;0.77;;
20095;SDS011;10207;50.942;6.900;2023-04-03T09:46:47;3.85;;;1.13;;
20095;SDS011;10207;50.942;6.900;2023-04-03T09:49:13;3.75;;;1.02;;
20095;SDS011;10207;50.942;6.900;2023-04-03T09:51:39;3.53;;;0.90;;
20095;SDS011;10207;50.942;6.900;2023-04-03T09:54:26;5.05;;;0.77;;
20095;SDS011;10207;50.942;6.900;2023-04-03T09:56:56;6.50;;;1.13;;
20095;SDS011;10207;50.942;6.900;2023-04-03T09:59:24;1.48;;;0.65;;
20095;SDS011;10207;50.942;6.900;2023-04-03T10:01:57;1.83;;;0.70;;
20095;SDS011;10207;50.942;6.900;2023-04-03T10:04:24;3.00;;;1.17;;
20095;SDS011;10207;50.942;6.900;2023-04-03T10:06:51;2.63;;;0.50;;
20095;SDS011;10207;50.942;6.900;2023-04-03T10:09:22;4.50;;;1.08;;
20095;SDS011;10207;50.942;6.900;2023-04-03T10:14:23;7.70;;;1.25;;
20095;SDS011;10207;50.942;6.900;2023-04-03T10:16:54;2.55;;;0.57;;
20095;SDS011;10207;50.942;6.900;2023-04-03T10:22:08;1.17;;;0.60;;
20095;SDS011;10207;50.942;6.900;2023-04-03T10:24:50;2.13;;;0.60;;
20095;SDS011;10207;50.942;6.900;2023-04-03T10:27:18;1.45;;;0.57;;
20095;SDS011;10207;50.942;6.900;2023-04-03T10:37:30;1.48;;;0.60;;
20095;SDS011;10207;50.942;6.900;2023-04-03T10:40:13;2.58;;;0.60;;
20095;SDS011;10207;50.942;6.900;2023-04-03T10:48:14;3.80;;;0.98;;
20095;SDS011;10207;50.942;6.900;2023-04-03T10:50:51;0.40;;;0.25;;
20095;SDS011;10207;50.942;6.900;2023-04-03T10:58:48;1.13;;;0.45;;
20095;SDS011;10207;50.942;6.900;2023-04-03T11:01:24;0.60;;;0.40;;
20095;SDS011;10207;50.942;6.900;2023-04-03T11:03:56;1.13;;;0.40;;
20095;SDS011;10207;50.942;6.900;2023-04-03T11:06:23;1.15;;;0.40;;
20095;SDS011;10207;50.942;6.900;2023-04-03T11:08:51;2.70;;;0.77;;
20095;SDS011;10207;50.942;6.900;2023-04-03T11:11:21;0.57;;;0.32;;
20095;SDS011;10207;50.942;6.900;2023-04-03T11:16:24;3.08;;;0.60;;
20095;SDS011;10207;50.942;6.900;2023-04-03T11:19:35;2.08;;;0.60;;
20095;SDS011;10207;50.942;6.900;2023-04-03T11:21:41;3.28;;;0.55;;
20095;SDS011;10207;50.942;6.900;2023-04-03T11:24:15;1.73;;;0.50;;
20095;SDS011;10207;50.942;6.900;2023-04-03T11:26:42;4.25;;;0.70;;
20095;SDS011;10207;50.942;6.900;2023-04-03T11:29:10;3.60;;;0.50;;
20095;SDS011;10207;50.942;6.900;2023-04-03T11:31:41;1.83;;;0.25;;
20095;SDS011;10207;50.942;6.900;2023-04-03T11:34:18;3.95;;;0.50;;
20095;SDS011;10207;50.942;6.900;2023-04-03T11:36:53;1.85;;;0.70;;
20095;SDS011;10207;50.942;6.900;2023-04-03T11:39:34;2.33;;;0.40;;
20095;SDS011;10207;50.942;6.900;2023-04-03T11:42:21;3.33;;;0.80;;
20095;SDS011;10207;50.942;6.900;2023-04-03T11:44:48;2.17;;;0.80;;
20095;SDS011;10207;50.942;6.900;2023-04-03T11:47:43;3.47;;;0.82;;
20095;SDS011;10207;50.942;6.900;2023-04-03T11:50:02;1.73;;;0.75;;
20095;SDS011;10207;50.942;6.900;2023-04-03T12:13:40;1.50;;;0.50;;
20095;SDS011;10207;50.942;6.900;2023-04-03T12:26:44;1.65;;;0.70;;
20095;SDS011;10207;50.942;6.900;2023-04-03T12:31:46;1.25;;;0.70;;
20095;SDS011;10207;50.942;6.900;2023-04-03T12:34:20;2.30;;;0.60;;
20095;SDS011;10207;50.942;6.900;2023-04-03T12:36:54;0.88;;;0.57;;
20095;SDS011;10207;50.942;6.900;2023-04-03T12:49:46;3.55;;;1.48;;
20095;SDS011;10207;50.942;6.900;2023-04-03T12:52:19;0.98;;;0.50;;
20095;SDS011;10207;50.942;6.900;2023-04-03T12:54:46;2.83;;;0.70;;
20095;SDS011;10207;50.942;6.900;2023-04-03T12:57:26;2.33;;;0.88;;
20095;SDS011;10207;50.942;6.900;2023-04-03T12:59:53;1.70;;;0.70;;
20095;SDS011;10207;50.942;6.900;2023-04-03T13:02:29;2.40;;;0.57;;
20095;SDS011;10207;50.942;6.900;2023-04-03T13:04:57;2.80;;;0.80;;
20095;SDS011;10207;50.942;6.900;2023-04-03T13:07:28;0.95;;;0.52;;
20095;SDS011;10207;50.942;6.900;2023-04-03T13:09:58;0.90;;;0.57;;
20095;SDS011;10207;50.942;6.900;2023-04-03T13:12:25;3.75;;;0.57;;
20095;SDS011;10207;50.942;6.900;2023-04-03T13:14:56;1.67;;;0.60;;
20095;SDS011;10207;50.942;6.900;2023-04-03T13:17:22;4.32;;;0.82;;
20095;SDS011;10207;50.942;6.900;2023-04-03T13:19:48;4.38;;;0.60;;
20095;SDS011;10207;50.942;6.900;2023-04-03T13:24:48;1.92;;;0.75;;
20095;SDS011;10207;50.942;6.900;2023-04-03T13:27:15;2.03;;;0.50;;
20095;SDS011;10207;50.942;6.900;2023-04-03T13:29:41;1.33;;;0.50;;
20095;SDS011;10207;50.942;6.900;2023-04-03T13:32:13;1.08;;;0.65;;
20095;SDS011;10207;50.942;6.900;2023-04-03T13:34:42;0.88;;;0.60;;
20095;SDS011;10207;50.942;6.900;2023-04-03T13:37:30;1.08;;;0.57;;
20095;SDS011;10207;50.942;6.900;2023-04-03T13:39:58;3.60;;;0.80;;
20095;SDS011;10207;50.942;6.900;2023-04-03T13:42:25;1.55;;;0.52;;
20095;SDS011;10207;50.942;6.900;2023-04-03T13:47:38;2.92;;;1.00;;
20095;SDS011;10207;50.942;6.900;2023-04-03T13:55:25;3.28;;;0.70;;
20095;SDS011;10207;50.942;6.900;2023-04-03T14:03:12;2.35;;;0.80;;
20095;SDS011;10207;50.942;6.900;2023-04-03T14:05:38;3.63;;;1.15;;
20095;SDS011;10207;50.942;6.900;2023-04-03T14:08:04;4.10;;;0.80;;
20095;SDS011;10207;50.942;6.900;2023-04-03T14:10:33;0.93;;;0.47;;
20095;SDS011;10207;50.942;6.900;2023-04-03T14:12:59;3.03;;;0.63;;
20095;SDS011;10207;50.942;6.900;2023-04-03T14:15:26;2.33;;;0.80;;
20095;SDS011;10207;50.942;6.900;2023-04-03T14:17:53;1.77;;;0.65;;
20095;SDS011;10207;50.942;6.900;2023-04-03T14:20:22;1.83;;;0.85;;
20095;SDS011;10207;50.942;6.900;2023-04-03T14:22:48;3.10;;;0.85;;
20095;SDS011;10207;50.942;6.900;2023-04-03T14:25:15;2.97;;;0.70;;
20095;SDS011;10207;50.942;6.900;2023-04-03T14:27:43;3.20;;;0.80;;
20095;SDS011;10207;50.942;6.900;2023-04-03T14:30:12;4.20;;;0.90;;
20095;SDS011;10207;50.942;6.900;2023-04-03T14:32:39;3.42;;;1.27;;
20095;SDS011;10207;50.942;6.900;2023-04-03T14:35:06;3.80;;;1.20;;
20095;SDS011;10207;50.942;6.900;2023-04-03T14:37:32;0.95;;;0.70;;
20095;SDS011;10207;50.942;6.900;2023-04-03T14:39:59;1.60;;;0.65;;
20095;SDS011;10207;50.942;6.900;2023-04-03T14:42:29;2.25;;;1.10;;
20095;SDS011;10207;50.942;6.900;2023-04-03T14:44:57;2.85;;;0.80;;
20095;SDS011;10207;50.942;6.900;2023-04-03T14:47:24;1.38;;;0.70;;
20095;SDS011;10207;50.942;6.900;2023-04-03T14:49:50;2.58;;;0.80;;
20095;SDS011;10207;50.942;6.900;2023-04-03T14:52:27;1.75;;;0.70;;
20095;SDS011;10207;50.942;6.900;2023-04-03T14:54:53;1.83;;;0.60;;
20095;SDS011;10207;50.942;6.900;2023-04-03T14:57:27;1.50;;;0.60;;
20095;SDS011;10207;50.942;6.900;2023-04-03T14:59:54;4.53;;;1.25;;
20095;SDS011;10207;50.942;6.900;2023-04-03T15:04:52;1.58;;;0.57;;
20095;SDS011;10207;50.942;6.900;2023-04-03T15:07:18;2.55;;;0.90;;
20095;SDS011;10207;50.942;6.900;2023-04-03T15:09:45;3.60;;;0.90;;
20095;SDS011;10207;50.942;6.900;2023-04-03T15:12:11;3.42;;;1.00;;
20095;SDS011;10207;50.942;6.900;2023-04-03T15:14:37;3.67;;;1.00;;
20095;SDS011;10207;50.942;6.900;2023-04-03T15:17:06;1.88;;;0.80;;
20095;SDS011;10207;50.942;6.900;2023-04-03T15:19:38;2.22;;;0.63;;
20095;SDS011;10207;50.942;6.900;2023-04-03T15:22:04;2.35;;;0.63;;
20095;SDS011;10207;50.942;6.900;2023-04-03T15:24:30;2.40;;;0.80;;
20095;SDS011;10207;50.942;6.900;2023-04-03T15:26:56;2.72;;;1.10;;
20095;SDS011;10207;50.942;6.900;2023-04-03T15:29:22;3.78;;;1.40;;
20095;SDS011;10207;50.942;6.900;2023-04-03T15:31:48;3.53;;;1.10;;
20095;SDS011;10207;50.942;6.900;2023-04-03T15:34:15;2.83;;;0.90;;
20095;SDS011;10207;50.942;6.900;2023-04-03T15:36:42;1.55;;;0.70;;
20095;SDS011;10207;50.942;6.900;2023-04-03T15:39:08;4.13;;;0.95;;
20095;SDS011;10207;50.942;6.900;2023-04-03T15:41:34;2.70;;;1.00;;
20095;SDS011;10207;50.942;6.900;2023-04-03T15:44:00;1.77;;;0.80;;
20095;SDS011;10207;50.942;6.900;2023-04-03T15:46:26;2.13;;;0.85;;
20095;SDS011;10207;50.942;6.900;2023-04-03T15:48:52;2.78;;;1.08;;
20095;SDS011;10207;50.942;6.900;2023-04-03T15:51:18;3.72;;;0.75;;
20095;SDS011;10207;50.942;6.900;2023-04-03T15:53:45;2.53;;;1.15;;
20095;SDS011;10207;50.942;6.900;2023-04-03T15:56:11;1.95;;;0.70;;
20095;SDS011;10207;50.942;6.900;2023-04-03T15:58:37;1.48;;;0.65;;
20095;SDS011;10207;50.942;6.900;2023-04-03T16:01:03;3.20;;;0.98;;
20095;SDS011;10207;50.942;6.900;2023-04-03T16:03:29;3.53;;;1.33;;
20095;SDS011;10207;50.942;6.900;2023-04-03T16:05:55;1.27;;;0.55;;
20095;SDS011;10207;50.942;6.900;2023-04-03T16:08:21;0.93;;;0.57;;
20095;SDS011;10207;50.942;6.900;2023-04-03T16:10:48;4.45;;;0.85;;
20095;SDS011;10207;50.942;6.900;2023-04-03T16:13:14;2.92;;;0.90;;
20095;SDS011;10207;50.942;6.900;2023-04-03T16:15:40;1.98;;;0.77;;
20095;SDS011;10207;50.942;6.900;2023-04-03T16:18:07;1.98;;;0.77;;
20095;SDS011;10207;50.942;6.900;2023-04-03T16:20:34;2.38;;;0.85;;
20095;SDS011;10207;50.942;6.900;2023-04-03T16:23:00;4.68;;;1.20;;
20095;SDS011;10207;50.942;6.900;2023-04-03T16:25:27;3.33;;;1.00;;
20095;SDS011;10207;50.942;6.900;2023-04-03T16:27:53;2.88;;;0.55;;
20095;SDS011;10207;50.942;6.900;2023-04-03T16:30:19;1.85;;;0.88;;
20095;SDS011;10207;50.942;6.900;2023-04-03T16:32:45;3.17;;;1.05;;
20095;SDS011;10207;50.942;6.900;2023-04-03T16:35:11;3.72;;;0.93;;
20095;SDS011;10207;50.942;6.900;2023-04-03T16:37:38;2.38;;;0.88;;
20095;SDS011;10207;50.942;6.900;2023-04-03T16:40:05;1.80;;;0.95;;
20095;SDS011;10207;50.942;6.900;2023-04-03T16:42:31;3.45;;;0.95;;
20095;SDS011;10207;50.942;6.900;2023-04-03T16:44:58;2.33;;;1.05;;
20095;SDS011;10207;50.942;6.900;2023-04-03T16:47:26;2.28;;;1.15;;